sensor_id;sensor_type;location;lat;lon;timestamp;pressure;altitude;pressure_sealevel;temperature;humidity
13050;BME280;6591;51.446;5.404;2024-02-23T00:01:12;98584.88;;;10.87;58.52
13050;BME280;6591;51.446;5.404;2024-02-23T00:03:39;98595.75;;;10.84;57.95
13050;BME280;6591;51.446;5.404;2024-02-23T00:06:06;98609.88;;;10.84;57.59
13050;BME280;6591;51.446;5.404;2024-02-23T00:08:36;98600.25;;;10.83;57.85
13050;BME280;6591;51.446;5.404;2024-02-23T00:11:07;98609.41;;;10.79;57.74
13050;BME280;6591;51.446;5.404;2024-02-23T00:13:35;98609.66;;;10.76;57.55
13050;BME280;6591;51.446;5.404;2024-02-23T00:16:02;98612.31;;;10.76;57.86
13050;BME280;6591;51.446;5.404;2024-02-23T00:18:33;98614.41;;;10.73;57.59
13050;BME280;6591;51.446;5.404;2024-02-23T00:21:00;98617.03;;;10.73;57.99
13050;BME280;6591;51.446;5.404;2024-02-23T00:23:27;98615.59;;;10.69;57.97
13050;BME280;6591;51.446;5.404;2024-02-23T00:25:55;98626.47;;;10.66;57.95
13050;BME280;6591;51.446;5.404;2024-02-23T00:28:23;98630.09;;;10.65;58.36
13050;BME280;6591;51.446;5.404;2024-02-23T00:30:50;98620.44;;;10.63;58.31
13050;BME280;6591;51.446;5.404;2024-02-23T00:33:17;98617.91;;;10.62;58.19
13050;BME280;6591;51.446;5.404;2024-02-23T00:35:44;98614.53;;;10.60;58.36
13050;BME280;6591;51.446;5.404;2024-02-23T00:38:11;98626.84;;;10.61;58.30
13050;BME280;6591;51.446;5.404;2024-02-23T00:40:38;98628.78;;;10.59;58.48
13050;BME280;6591;51.446;5.404;2024-02-23T00:43:05;98634.06;;;10.59;58.35
13050;BME280;6591;51.446;5.404;2024-02-23T00:45:32;98623.56;;;10.57;58.22
13050;BME280;6591;51.446;5.404;2024-02-23T00:47:59;98641.34;;;10.57;58.20
13050;BME280;6591;51.446;5.404;2024-02-23T00:50:27;98644.81;;;10.57;57.97
13050;BME280;6591;51.446;5.404;2024-02-23T00:52:54;98642.28;;;10.56;58.32
13050;BME280;6591;51.446;5.404;2024-02-23T00:55:21;98648.56;;;10.55;57.93
13050;BME280;6591;51.446;5.404;2024-02-23T00:57:49;98648.56;;;10.55;58.24
13050;BME280;6591;51.446;5.404;2024-02-23T01:00:16;98657.47;;;10.54;57.88
13050;BME280;6591;51.446;5.404;2024-02-23T01:02:43;98655.78;;;10.53;58.55
13050;BME280;6591;51.446;5.404;2024-02-23T01:05:10;98653.28;;;10.51;58.19
13050;BME280;6591;51.446;5.404;2024-02-23T01:07:38;98667.41;;;10.52;58.11
13050;BME280;6591;51.446;5.404;2024-02-23T01:10:05;98656.78;;;10.52;58.07
13050;BME280;6591;51.446;5.404;2024-02-23T01:12:33;98670.88;;;10.52;58.40
13050;BME280;6591;51.446;5.404;2024-02-23T01:15:00;98667.25;;;10.53;58.28
13050;BME280;6591;51.446;5.404;2024-02-23T01:17:31;98666.41;;;10.53;58.15
13050;BME280;6591;51.446;5.404;2024-02-23T01:19:59;98668.94;;;10.54;58.35
13050;BME280;6591;51.446;5.404;2024-02-23T01:22:27;98672.56;;;10.53;58.56
13050;BME280;6591;51.446;5.404;2024-02-23T01:24:54;98675.22;;;10.53;58.21
13050;BME280;6591;51.446;5.404;2024-02-23T01:27:21;98680.41;;;10.55;58.08
13050;BME280;6591;51.446;5.404;2024-02-23T01:29:48;98679.44;;;10.56;58.22
13050;BME280;6591;51.446;5.404;2024-02-23T01:32:16;98682.09;;;10.56;58.03
13050;BME280;6591;51.446;5.404;2024-02-23T01:34:43;98687.25;;;10.57;58.37
13050;BME280;6591;51.446;5.404;2024-02-23T01:37:11;98684.50;;;10.59;58.72
13050;BME280;6591;51.446;5.404;2024-02-23T01:39:38;98691.22;;;10.63;58.80
13050;BME280;6591;51.446;5.404;2024-02-23T01:42:05;98691.97;;;10.65;58.73
13050;BME280;6591;51.446;5.404;2024-02-23T01:44:33;98692.53;;;10.69;58.65
13050;BME280;6591;51.446;5.404;2024-02-23T01:47:00;98691.47;;;10.71;58.76
13050;BME280;6591;51.446;5.404;2024-02-23T01:49:27;98692.31;;;10.72;58.81
13050;BME280;6591;51.446;5.404;2024-02-23T01:51:58;98689.53;;;10.73;59.22
13050;BME280;6591;51.446;5.404;2024-02-23T01:54:35;98690.13;;;10.77;58.66
13050;BME280;6591;51.446;5.404;2024-02-23T01:57:03;98694.09;;;10.82;58.69
13050;BME280;6591;51.446;5.404;2024-02-23T01:59:50;98688.53;;;10.85;59.41
13050;BME280;6591;51.446;5.404;2024-02-23T02:02:21;98674.19;;;10.88;58.79
13050;BME280;6591;51.446;5.404;2024-02-23T02:04:50;98692.50;;;10.91;58.88
13050;BME280;6591;51.446;5.404;2024-02-23T02:07:17;98682.72;;;10.91;58.34
13050;BME280;6591;51.446;5.404;2024-02-23T02:09:46;98688.88;;;10.92;58.07
13050;BME280;6591;51.446;5.404;2024-02-23T02:12:29;98697.22;;;10.87;58.05
13050;BME280;6591;51.446;5.404;2024-02-23T02:14:56;98689.97;;;10.89;57.78
13050;BME280;6591;51.446;5.404;2024-02-23T02:17:24;98698.94;;;10.88;57.50
13050;BME280;6591;51.446;5.404;2024-02-23T02:19:52;98699.16;;;10.85;57.70
13050;BME280;6591;51.446;5.404;2024-02-23T02:22:20;98700.25;;;10.83;57.57
13050;BME280;6591;51.446;5.404;2024-02-23T02:24:48;98704.00;;;10.80;57.75
13050;BME280;6591;51.446;5.404;2024-02-23T02:27:15;98699.66;;;10.79;57.61
13050;BME280;6591;51.446;5.404;2024-02-23T02:29:42;98706.66;;;10.80;57.67
13050;BME280;6591;51.446;5.404;2024-02-23T02:32:10;98711.97;;;10.80;57.43
13050;BME280;6591;51.446;5.404;2024-02-23T02:34:37;98708.34;;;10.81;57.63
13050;BME280;6591;51.446;5.404;2024-02-23T02:37:04;98710.25;;;10.79;57.65
13050;BME280;6591;51.446;5.404;2024-02-23T02:39:31;98718.22;;;10.79;57.68
13050;BME280;6591;51.446;5.404;2024-02-23T02:41:58;98722.56;;;10.80;57.77
13050;BME280;6591;51.446;5.404;2024-02-23T02:44:25;98716.31;;;10.81;58.07
13050;BME280;6591;51.446;5.404;2024-02-23T02:46:53;98724.00;;;10.84;57.93
13050;BME280;6591;51.446;5.404;2024-02-23T02:49:21;98720.38;;;10.85;57.70
13050;BME280;6591;51.446;5.404;2024-02-23T02:51:48;98719.44;;;10.86;57.96
13050;BME280;6591;51.446;5.404;2024-02-23T02:54:16;98713.16;;;10.87;57.86
13050;BME280;6591;51.446;5.404;2024-02-23T02:56:44;98720.16;;;10.88;57.21
13050;BME280;6591;51.446;5.404;2024-02-23T02:59:13;98723.78;;;10.87;57.38
13050;BME280;6591;51.446;5.404;2024-02-23T03:01:40;98721.25;;;10.86;57.33
13050;BME280;6591;51.446;5.404;2024-02-23T03:04:08;98718.69;;;10.84;57.36
13050;BME280;6591;51.446;5.404;2024-02-23T03:06:35;98728.47;;;10.84;57.61
13050;BME280;6591;51.446;5.404;2024-02-23T03:09:03;98725.81;;;10.84;57.39
13050;BME280;6591;51.446;5.404;2024-02-23T03:11:30;98718.84;;;10.83;58.16
13050;BME280;6591;51.446;5.404;2024-02-23T03:13:57;98727.41;;;10.86;58.27
13050;BME280;6591;51.446;5.404;2024-02-23T03:16:25;98726.44;;;10.87;58.00
13050;BME280;6591;51.446;5.404;2024-02-23T03:18:57;98729.09;;;10.87;57.92
13050;BME280;6591;51.446;5.404;2024-02-23T03:21:25;98725.69;;;10.85;57.78
13050;BME280;6591;51.446;5.404;2024-02-23T03:23:52;98726.53;;;10.86;57.29
13050;BME280;6591;51.446;5.404;2024-02-23T03:26:19;98724.00;;;10.84;57.92
13050;BME280;6591;51.446;5.404;2024-02-23T03:28:47;98734.63;;;10.84;58.07
13050;BME280;6591;51.446;5.404;2024-02-23T03:31:15;98729.19;;;10.86;58.26
13050;BME280;6591;51.446;5.404;2024-02-23T03:33:42;98738.75;;;10.88;58.49
13050;BME280;6591;51.446;5.404;2024-02-23T03:36:10;98726.16;;;10.90;57.66
13050;BME280;6591;51.446;5.404;2024-02-23T03:38:38;98725.47;;;10.88;57.80
13050;BME280;6591;51.446;5.404;2024-02-23T03:41:05;98733.19;;;10.91;57.69
13050;BME280;6591;51.446;5.404;2024-02-23T03:43:33;98736.09;;;10.88;57.67
13050;BME280;6591;51.446;5.404;2024-02-23T03:46:01;98742.84;;;10.92;58.26
13050;BME280;6591;51.446;5.404;2024-02-23T03:48:28;98730.25;;;10.94;58.52
13050;BME280;6591;51.446;5.404;2024-02-23T03:50:56;98732.81;;;10.96;58.51
13050;BME280;6591;51.446;5.404;2024-02-23T03:53:24;98739.53;;;11.00;59.19
13050;BME280;6591;51.446;5.404;2024-02-23T03:55:51;98740.16;;;11.03;58.59
13050;BME280;6591;51.446;5.404;2024-02-23T03:58:18;98741.59;;;11.08;58.82
13050;BME280;6591;51.446;5.404;2024-02-23T04:00:45;98736.75;;;11.13;58.98
13050;BME280;6591;51.446;5.404;2024-02-23T04:03:12;98742.63;;;11.16;59.00
13050;BME280;6591;51.446;5.404;2024-02-23T04:05:39;98735.50;;;11.17;58.36
13050;BME280;6591;51.446;5.404;2024-02-23T04:08:07;98731.06;;;11.17;58.54
13050;BME280;6591;51.446;5.404;2024-02-23T04:10:34;98734.44;;;11.19;57.87
13050;BME280;6591;51.446;5.404;2024-02-23T04:13:01;98722.97;;;11.19;57.86
13050;BME280;6591;51.446;5.404;2024-02-23T04:15:28;98731.31;;;11.14;57.57
13050;BME280;6591;51.446;5.404;2024-02-23T04:17:56;98737.47;;;11.15;57.99
13050;BME280;6591;51.446;5.404;2024-02-23T04:20:24;98734.09;;;11.13;57.77
13050;BME280;6591;51.446;5.404;2024-02-23T04:22:52;98750.88;;;11.13;57.96
13050;BME280;6591;51.446;5.404;2024-02-23T04:25:22;98750.03;;;11.13;58.09
13050;BME280;6591;51.446;5.404;2024-02-23T04:27:50;98757.63;;;11.17;58.72
13050;BME280;6591;51.446;5.404;2024-02-23T04:30:17;98759.31;;;11.18;58.70
13050;BME280;6591;51.446;5.404;2024-02-23T04:32:44;98756.38;;;11.21;58.25
13050;BME280;6591;51.446;5.404;2024-02-23T04:35:11;98755.16;;;11.25;58.61
13050;BME280;6591;51.446;5.404;2024-02-23T04:37:38;98762.16;;;11.26;58.32
13050;BME280;6591;51.446;5.404;2024-02-23T04:40:07;98766.41;;;11.29;58.27
13050;BME280;6591;51.446;5.404;2024-02-23T04:42:34;98756.84;;;11.26;58.50
13050;BME280;6591;51.446;5.404;2024-02-23T04:45:01;98764.44;;;11.31;58.71
13050;BME280;6591;51.446;5.404;2024-02-23T04:47:28;98763.25;;;11.35;58.54
13050;BME280;6591;51.446;5.404;2024-02-23T04:49:56;98770.94;;;11.38;58.77
13050;BME280;6591;51.446;5.404;2024-02-23T04:52:23;98769.72;;;11.42;59.32
13050;BME280;6591;51.446;5.404;2024-02-23T04:54:50;98760.41;;;11.47;59.13
13050;BME280;6591;51.446;5.404;2024-02-23T04:57:18;98759.16;;;11.52;59.45
13050;BME280;6591;51.446;5.404;2024-02-23T04:59:45;98771.09;;;11.57;59.69
13050;BME280;6591;51.446;5.404;2024-02-23T05:02:12;98765.28;;;11.63;59.27
13050;BME280;6591;51.446;5.404;2024-02-23T05:04:40;98766.47;;;11.70;59.03
13050;BME280;6591;51.446;5.404;2024-02-23T05:07:07;98765.16;;;11.76;59.48
13050;BME280;6591;51.446;5.404;2024-02-23T05:09:34;98763.06;;;11.79;59.47
13050;BME280;6591;51.446;5.404;2024-02-23T05:12:02;98772.34;;;11.85;59.12
13050;BME280;6591;51.446;5.404;2024-02-23T05:14:29;98770.28;;;11.88;58.98
13050;BME280;6591;51.446;5.404;2024-02-23T05:16:56;98768.06;;;11.94;59.03
13050;BME280;6591;51.446;5.404;2024-02-23T05:19:26;98759.97;;;11.95;59.26
13050;BME280;6591;51.446;5.404;2024-02-23T05:21:53;98764.78;;;12.01;59.16
13050;BME280;6591;51.446;5.404;2024-02-23T05:24:20;98774.16;;;12.05;58.91
13050;BME280;6591;51.446;5.404;2024-02-23T05:26:48;98759.63;;;12.09;58.94
13050;BME280;6591;51.446;5.404;2024-02-23T05:29:15;98769.91;;;12.14;59.20
13050;BME280;6591;51.446;5.404;2024-02-23T05:31:48;98765.16;;;12.17;59.23
13050;BME280;6591;51.446;5.404;2024-02-23T05:34:16;98761.25;;;12.21;58.80
13050;BME280;6591;51.446;5.404;2024-02-23T05:36:43;98758.59;;;12.21;58.54
13050;BME280;6591;51.446;5.404;2024-02-23T05:39:10;98760.16;;;12.24;58.77
13050;BME280;6591;51.446;5.404;2024-02-23T05:41:39;98760.72;;;12.27;59.07
13050;BME280;6591;51.446;5.404;2024-02-23T05:44:06;98761.56;;;12.28;58.56
13050;BME280;6591;51.446;5.404;2024-02-23T05:46:35;98752.63;;;12.29;58.64
13050;BME280;6591;51.446;5.404;2024-02-23T05:49:03;98742.81;;;12.29;58.47
13050;BME280;6591;51.446;5.404;2024-02-23T05:51:31;98734.69;;;12.31;58.89
13050;BME280;6591;51.446;5.404;2024-02-23T05:53:59;98726.69;;;12.31;58.71
13050;BME280;6591;51.446;5.404;2024-02-23T05:56:26;98728.41;;;12.32;58.56
13050;BME280;6591;51.446;5.404;2024-02-23T05:58:53;98732.75;;;12.33;58.61
13050;BME280;6591;51.446;5.404;2024-02-23T06:01:21;98722.09;;;12.33;58.40
13050;BME280;6591;51.446;5.404;2024-02-23T06:03:48;98728.28;;;12.34;58.76
13050;BME280;6591;51.446;5.404;2024-02-23T06:06:15;98734.28;;;12.36;58.42
13050;BME280;6591;51.446;5.404;2024-02-23T06:08:43;98736.81;;;12.37;58.39
13050;BME280;6591;51.446;5.404;2024-02-23T06:11:10;98730.53;;;12.38;58.17
13050;BME280;6591;51.446;5.404;2024-02-23T06:13:37;98734.03;;;12.39;58.64
13050;BME280;6591;51.446;5.404;2024-02-23T06:16:10;98732.22;;;12.39;58.69
13050;BME280;6591;51.446;5.404;2024-02-23T06:18:38;98720.59;;;12.40;58.61
13050;BME280;6591;51.446;5.404;2024-02-23T06:21:26;98726.19;;;12.37;58.38
13050;BME280;6591;51.446;5.404;2024-02-23T06:23:53;98726.63;;;12.42;58.52
13050;BME280;6591;51.446;5.404;2024-02-23T06:26:23;98730.00;;;12.44;58.44
13050;BME280;6591;51.446;5.404;2024-02-23T06:28:50;98716.53;;;12.46;58.19
13050;BME280;6591;51.446;5.404;2024-02-23T06:31:21;98729.03;;;12.45;58.32
13050;BME280;6591;51.446;5.404;2024-02-23T06:33:48;98729.72;;;12.47;58.58
13050;BME280;6591;51.446;5.404;2024-02-23T06:36:17;98726.09;;;12.48;58.24
13050;BME280;6591;51.446;5.404;2024-02-23T06:38:53;98740.13;;;12.50;58.17
13050;BME280;6591;51.446;5.404;2024-02-23T06:41:25;98740.97;;;12.51;58.04
13050;BME280;6591;51.446;5.404;2024-02-23T06:43:54;98725.81;;;12.51;58.11
13050;BME280;6591;51.446;5.404;2024-02-23T06:46:21;98733.53;;;12.54;58.25
13050;BME280;6591;51.446;5.404;2024-02-23T06:48:51;98733.53;;;12.54;58.05
13050;BME280;6591;51.446;5.404;2024-02-23T06:51:18;98718.25;;;12.56;58.05
13050;BME280;6591;51.446;5.404;2024-02-23T06:53:49;98717.28;;;12.57;57.84
13050;BME280;6591;51.446;5.404;2024-02-23T06:56:17;98715.47;;;12.58;58.12
13050;BME280;6591;51.446;5.404;2024-02-23T06:58:47;98721.22;;;12.63;57.61
13050;BME280;6591;51.446;5.404;2024-02-23T07:01:15;98727.41;;;12.63;57.74
13050;BME280;6591;51.446;5.404;2024-02-23T07:03:42;98723.91;;;12.63;58.13
13050;BME280;6591;51.446;5.404;2024-02-23T07:06:11;98732.47;;;12.66;57.83
13050;BME280;6591;51.446;5.404;2024-02-23T07:08:38;98740.31;;;12.68;57.54
13050;BME280;6591;51.446;5.404;2024-02-23T07:11:05;98722.50;;;12.68;57.71
13050;BME280;6591;51.446;5.404;2024-02-23T07:13:33;98734.97;;;12.68;57.99
13050;BME280;6591;51.446;5.404;2024-02-23T07:16:00;98732.19;;;12.69;57.48
13050;BME280;6591;51.446;5.404;2024-02-23T07:18:27;98727.72;;;12.70;57.55
13050;BME280;6591;51.446;5.404;2024-02-23T07:20:55;98723.91;;;12.72;57.85
13050;BME280;6591;51.446;5.404;2024-02-23T07:23:24;98724.63;;;12.74;57.48
13050;BME280;6591;51.446;5.404;2024-02-23T07:25:51;98715.69;;;12.76;57.37
13050;BME280;6591;51.446;5.404;2024-02-23T07:28:18;98721.69;;;12.78;57.44
13050;BME280;6591;51.446;5.404;2024-02-23T07:30:50;98734.75;;;12.81;57.73
13050;BME280;6591;51.446;5.404;2024-02-23T07:33:18;98724.53;;;12.86;57.99
13050;BME280;6591;51.446;5.404;2024-02-23T07:35:54;98723.16;;;12.91;57.71
13050;BME280;6591;51.446;5.404;2024-02-23T07:38:21;98728.19;;;12.94;57.92
13050;BME280;6591;51.446;5.404;2024-02-23T07:40:51;98723.03;;;13.02;57.80
13050;BME280;6591;51.446;5.404;2024-02-23T07:43:18;98725.75;;;13.12;58.02
13050;BME280;6591;51.446;5.404;2024-02-23T07:45:46;98718.03;;;13.19;57.95
13050;BME280;6591;51.446;5.404;2024-02-23T07:48:13;98718.72;;;13.30;57.93
13050;BME280;6591;51.446;5.404;2024-02-23T07:50:40;98709.50;;;13.34;57.68
13050;BME280;6591;51.446;5.404;2024-02-23T07:53:08;98702.19;;;13.36;57.37
13050;BME280;6591;51.446;5.404;2024-02-23T07:55:35;98704.31;;;13.42;57.71
13050;BME280;6591;51.446;5.404;2024-02-23T07:58:02;98716.53;;;13.45;57.17
13050;BME280;6591;51.446;5.404;2024-02-23T08:00:29;98710.06;;;13.47;57.38
13050;BME280;6591;51.446;5.404;2024-02-23T08:02:56;98708.78;;;13.51;57.33
13050;BME280;6591;51.446;5.404;2024-02-23T08:05:24;98706.53;;;13.56;57.24
13050;BME280;6591;51.446;5.404;2024-02-23T08:07:51;98712.28;;;13.62;57.21
13050;BME280;6591;51.446;5.404;2024-02-23T08:10:25;98703.84;;;13.66;57.02
13050;BME280;6591;51.446;5.404;2024-02-23T08:12:52;98693.75;;;13.70;57.22
13050;BME280;6591;51.446;5.404;2024-02-23T08:15:25;98692.63;;;13.72;56.98
13050;BME280;6591;51.446;5.404;2024-02-23T08:17:52;98694.84;;;13.77;57.13
13050;BME280;6591;51.446;5.404;2024-02-23T08:20:20;98703.28;;;13.82;57.07
13050;BME280;6591;51.446;5.404;2024-02-23T08:22:49;98683.63;;;13.83;57.14
13050;BME280;6591;51.446;5.404;2024-02-23T08:25:16;98687.72;;;13.87;56.74
13050;BME280;6591;51.446;5.404;2024-02-23T08:27:43;98689.94;;;13.91;56.87
13050;BME280;6591;51.446;5.404;2024-02-23T08:30:13;98703.81;;;13.95;56.87
13050;BME280;6591;51.446;5.404;2024-02-23T08:32:41;98697.50;;;13.96;56.55
13050;BME280;6591;51.446;5.404;2024-02-23T08:35:08;98699.03;;;13.98;56.67
13050;BME280;6591;51.446;5.404;2024-02-23T08:37:36;98699.59;;;14.02;56.58
13050;BME280;6591;51.446;5.404;2024-02-23T08:40:03;98701.97;;;14.05;56.54
13050;BME280;6591;51.446;5.404;2024-02-23T08:42:33;98693.53;;;14.10;56.84
13050;BME280;6591;51.446;5.404;2024-02-23T08:45:00;98709.81;;;14.16;56.72
13050;BME280;6591;51.446;5.404;2024-02-23T08:47:27;98702.34;;;14.20;56.70
13050;BME280;6591;51.446;5.404;2024-02-23T08:49:59;98698.97;;;14.27;56.85
13050;BME280;6591;51.446;5.404;2024-02-23T08:52:26;98693.63;;;14.37;56.96
13050;BME280;6591;51.446;5.404;2024-02-23T08:54:53;98710.16;;;14.40;56.57
13050;BME280;6591;51.446;5.404;2024-02-23T08:57:21;98697.53;;;14.43;56.47
13050;BME280;6591;51.446;5.404;2024-02-23T08:59:52;98704.25;;;14.47;56.33
13050;BME280;6591;51.446;5.404;2024-02-23T09:02:20;98699.44;;;14.50;56.16
13050;BME280;6591;51.446;5.404;2024-02-23T09:04:51;98700.00;;;14.54;56.38
13050;BME280;6591;51.446;5.404;2024-02-23T09:07:18;98704.75;;;14.60;56.66
13050;BME280;6591;51.446;5.404;2024-02-23T09:09:51;98712.16;;;14.66;56.74
13050;BME280;6591;51.446;5.404;2024-02-23T09:12:18;98710.91;;;14.70;56.36
13050;BME280;6591;51.446;5.404;2024-02-23T09:14:52;98706.09;;;14.73;56.09
13050;BME280;6591;51.446;5.404;2024-02-23T09:17:28;98705.94;;;14.75;55.85
13050;BME280;6591;51.446;5.404;2024-02-23T09:19:55;98707.19;;;14.80;56.20
13050;BME280;6591;51.446;5.404;2024-02-23T09:22:24;98700.41;;;14.86;55.61
13050;BME280;6591;51.446;5.404;2024-02-23T09:24:51;98692.78;;;14.91;55.00
13050;BME280;6591;51.446;5.404;2024-02-23T09:27:20;98705.97;;;14.93;55.77
13050;BME280;6591;51.446;5.404;2024-02-23T09:29:48;98690.31;;;14.98;55.84
13050;BME280;6591;51.446;5.404;2024-02-23T09:32:16;98698.91;;;15.01;54.89
13050;BME280;6591;51.446;5.404;2024-02-23T09:34:44;98715.53;;;14.95;54.66
13050;BME280;6591;51.446;5.404;2024-02-23T09:37:11;98711.31;;;14.93;54.67
13050;BME280;6591;51.446;5.404;2024-02-23T09:39:38;98713.47;;;14.89;54.60
13050;BME280;6591;51.446;5.404;2024-02-23T09:42:10;98713.91;;;14.84;54.45
13050;BME280;6591;51.446;5.404;2024-02-23T09:44:44;98708.69;;;14.83;54.78
13050;BME280;6591;51.446;5.404;2024-02-23T09:47:14;98716.72;;;14.83;55.01
13050;BME280;6591;51.446;5.404;2024-02-23T09:49:41;98725.72;;;14.82;54.68
13050;BME280;6591;51.446;5.404;2024-02-23T09:52:09;98725.72;;;14.82;55.03
13050;BME280;6591;51.446;5.404;2024-02-23T09:54:37;98717.03;;;14.80;54.54
13050;BME280;6591;51.446;5.404;2024-02-23T09:57:09;98729.16;;;14.74;54.58
13050;BME280;6591;51.446;5.404;2024-02-23T09:59:37;98737.63;;;14.70;54.37
13050;BME280;6591;51.446;5.404;2024-02-23T10:02:14;98721.19;;;14.65;54.55
13050;BME280;6591;51.446;5.404;2024-02-23T10:04:43;98733.69;;;14.64;54.57
13050;BME280;6591;51.446;5.404;2024-02-23T10:07:14;98741.84;;;14.63;54.45
13050;BME280;6591;51.446;5.404;2024-02-23T10:09:43;98735.81;;;14.61;54.84
13050;BME280;6591;51.446;5.404;2024-02-23T10:12:10;98734.16;;;14.60;54.95
13050;BME280;6591;51.446;5.404;2024-02-23T10:14:37;98740.47;;;14.59;54.95
13050;BME280;6591;51.446;5.404;2024-02-23T10:17:06;98737.09;;;14.57;54.62
13050;BME280;6591;51.446;5.404;2024-02-23T10:19:34;98742.44;;;14.57;55.02
13050;BME280;6591;51.446;5.404;2024-02-23T10:22:01;98741.00;;;14.62;55.18
13050;BME280;6591;51.446;5.404;2024-02-23T10:24:29;98741.00;;;14.62;55.15
13050;BME280;6591;51.446;5.404;2024-02-23T10:26:56;98727.66;;;14.62;54.71
13050;BME280;6591;51.446;5.404;2024-02-23T10:29:25;98741.53;;;14.66;55.10
13050;BME280;6591;51.446;5.404;2024-02-23T10:31:57;98755.28;;;14.71;55.00
13050;BME280;6591;51.446;5.404;2024-02-23T10:34:29;98743.34;;;14.75;54.93
13050;BME280;6591;51.446;5.404;2024-02-23T10:36:56;98749.75;;;14.82;55.54
13050;BME280;6591;51.446;5.404;2024-02-23T10:39:24;98765.91;;;14.90;55.39
13050;BME280;6591;51.446;5.404;2024-02-23T10:42:03;98760.81;;;14.97;55.11
13050;BME280;6591;51.446;5.404;2024-02-23T10:44:32;98751.34;;;15.02;55.15
13050;BME280;6591;51.446;5.404;2024-02-23T10:47:00;98757.94;;;15.08;54.67
13050;BME280;6591;51.446;5.404;2024-02-23T10:49:29;98772.00;;;15.10;54.97
13050;BME280;6591;51.446;5.404;2024-02-23T10:51:59;98769.47;;;15.08;54.43
13050;BME280;6591;51.446;5.404;2024-02-23T10:54:27;98780.00;;;15.10;54.60
13050;BME280;6591;51.446;5.404;2024-02-23T10:56:54;98782.38;;;15.13;54.67
13050;BME280;6591;51.446;5.404;2024-02-23T10:59:23;98782.38;;;15.13;54.65
13050;BME280;6591;51.446;5.404;2024-02-23T11:01:55;98780.25;;;15.16;54.46
13050;BME280;6591;51.446;5.404;2024-02-23T11:04:27;98794.03;;;15.21;54.75
13050;BME280;6591;51.446;5.404;2024-02-23T11:06:55;98796.09;;;15.27;54.94
13050;BME280;6591;51.446;5.404;2024-02-23T11:09:26;98790.13;;;15.34;54.68
13050;BME280;6591;51.446;5.404;2024-02-23T11:11:56;98784.50;;;15.37;54.97
13050;BME280;6591;51.446;5.404;2024-02-23T11:14:38;98793.19;;;15.39;54.53
13050;BME280;6591;51.446;5.404;2024-02-23T11:17:06;98791.22;;;15.41;54.49
13050;BME280;6591;51.446;5.404;2024-02-23T11:19:49;98790.50;;;15.39;54.21
13050;BME280;6591;51.446;5.404;2024-02-23T11:22:36;98796.28;;;15.44;54.44
13050;BME280;6591;51.446;5.404;2024-02-23T11:25:07;98792.97;;;15.50;54.76
13050;BME280;6591;51.446;5.404;2024-02-23T11:27:38;98792.72;;;15.53;54.91
13050;BME280;6591;51.446;5.404;2024-02-23T11:30:11;98791.94;;;15.60;54.91
13050;BME280;6591;51.446;5.404;2024-02-23T11:32:47;98802.91;;;15.67;54.52
13050;BME280;6591;51.446;5.404;2024-02-23T11:35:17;98797.63;;;15.75;54.72
13050;BME280;6591;51.446;5.404;2024-02-23T11:37:56;98807.69;;;15.81;54.62
13050;BME280;6591;51.446;5.404;2024-02-23T11:40:31;98798.06;;;15.88;54.60
13050;BME280;6591;51.446;5.404;2024-02-23T11:42:59;98805.78;;;15.91;54.57
13050;BME280;6591;51.446;5.404;2024-02-23T11:45:30;98817.19;;;15.93;54.19
13050;BME280;6591;51.446;5.404;2024-02-23T11:47:58;98825.22;;;15.93;54.16
13050;BME280;6591;51.446;5.404;2024-02-23T11:50:27;98810.47;;;15.89;53.94
13050;BME280;6591;51.446;5.404;2024-02-23T11:52:54;98815.13;;;15.87;53.94
13050;BME280;6591;51.446;5.404;2024-02-23T11:55:22;98816.44;;;15.83;54.16
13050;BME280;6591;51.446;5.404;2024-02-23T11:57:51;98821.09;;;15.81;54.04
13050;BME280;6591;51.446;5.404;2024-02-23T12:00:31;98828.44;;;15.79;53.66
13050;BME280;6591;51.446;5.404;2024-02-23T12:02:59;98822.53;;;15.76;53.86
13050;BME280;6591;51.446;5.404;2024-02-23T12:05:27;98817.34;;;15.74;53.87
13050;BME280;6591;51.446;5.404;2024-02-23T12:07:54;98816.50;;;15.74;54.24
13050;BME280;6591;51.446;5.404;2024-02-23T12:10:23;98819.19;;;15.74;53.98
13050;BME280;6591;51.446;5.404;2024-02-23T12:12:50;98819.03;;;15.75;54.39
13050;BME280;6591;51.446;5.404;2024-02-23T12:15:17;98829.44;;;15.78;54.43
13050;BME280;6591;51.446;5.404;2024-02-23T12:17:49;98817.03;;;15.77;53.52
13050;BME280;6591;51.446;5.404;2024-02-23T12:20:16;98829.44;;;15.78;53.85
13050;BME280;6591;51.446;5.404;2024-02-23T12:22:47;98833.78;;;15.79;53.73
13050;BME280;6591;51.446;5.404;2024-02-23T12:25:14;98830.13;;;15.80;54.06
13050;BME280;6591;51.446;5.404;2024-02-23T12:27:43;98823.63;;;15.83;54.11
13050;BME280;6591;51.446;5.404;2024-02-23T12:30:14;98828.38;;;15.89;54.32
13050;BME280;6591;51.446;5.404;2024-02-23T12:32:42;98831.94;;;15.97;54.54
13050;BME280;6591;51.446;5.404;2024-02-23T12:35:14;98822.16;;;16.06;54.20
13050;BME280;6591;51.446;5.404;2024-02-23T12:37:43;98815.03;;;16.15;54.17
13050;BME280;6591;51.446;5.404;2024-02-23T12:40:11;98816.78;;;16.24;54.08
13050;BME280;6591;51.446;5.404;2024-02-23T12:42:39;98823.34;;;16.29;53.66
13050;BME280;6591;51.446;5.404;2024-02-23T12:45:07;98820.91;;;16.36;53.89
13050;BME280;6591;51.446;5.404;2024-02-23T12:47:34;98813.94;;;16.43;53.89
13050;BME280;6591;51.446;5.404;2024-02-23T12:50:02;98819.66;;;16.48;53.76
13050;BME280;6591;51.446;5.404;2024-02-23T12:52:29;98812.00;;;16.53;53.60
13050;BME280;6591;51.446;5.404;2024-02-23T12:54:56;98817.88;;;16.57;53.63
13050;BME280;6591;51.446;5.404;2024-02-23T12:57:23;98818.41;;;16.60;53.51
13050;BME280;6591;51.446;5.404;2024-02-23T12:59:51;98810.53;;;16.59;53.29
13050;BME280;6591;51.446;5.404;2024-02-23T13:02:18;98804.00;;;16.61;52.92
13050;BME280;6591;51.446;5.404;2024-02-23T13:04:46;98810.22;;;16.62;53.26
13050;BME280;6591;51.446;5.404;2024-02-23T13:07:16;98806.56;;;16.63;53.11
13050;BME280;6591;51.446;5.404;2024-02-23T13:09:44;98809.06;;;16.64;53.14
13050;BME280;6591;51.446;5.404;2024-02-23T13:12:12;98806.22;;;16.66;52.94
13050;BME280;6591;51.446;5.404;2024-02-23T13:14:39;98805.38;;;16.65;52.94
13050;BME280;6591;51.446;5.404;2024-02-23T13:17:06;98816.78;;;16.67;52.97